sensor_id;sensor_type;location;lat;lon;timestamp;pressure;altitude;pressure_sealevel;temperature;humidity
31331;BME280;34067;39.548;-76.088;2023-06-22T00:01:11;102104.35;;;12.91;100.00
31331;BME280;34067;39.548;-76.088;2023-06-22T00:03:39;102106.30;;;12.48;100.00
31331;BME280;34067;39.548;-76.088;2023-06-22T00:06:07;102105.91;;;11.77;100.00
31331;BME280;34067;39.548;-76.088;2023-06-22T00:08:35;102104.50;;;13.02;100.00
31331;BME280;34067;39.548;-76.088;2023-06-22T00:11:03;102099.07;;;12.24;100.00
31331;BME280;34067;39.548;-76.088;2023-06-22T00:13:31;102097.05;;;12.42;100.00
31331;BME280;34067;39.548;-76.088;2023-06-22T00:15:59;102093.47;;;13.81;100.00
31331;BME280;34067;39.548;-76.088;2023-06-22T00:18:27;102092.29;;;13.57;100.00
31331;BME280;34067;39.548;-76.088;2023-06-22T00:20:55;102086.66;;;12.09;100.00
31331;BME280;34067;39.548;-76.088;2023-06-22T00:23:24;102079.22;;;12.01;100.00
31331;BME280;34067;39.548;-76.088;2023-06-22T00:25:52;102073.26;;;13.29;100.00
31331;BME280;34067;39.548;-76.088;2023-06-22T00:28:20;102070.88;;;13.34;100.00
31331;BME280;34067;39.548;-76.088;2023-06-22T00:30:49;102067.23;;;12.18;100.00
31331;BME280;34067;39.548;-76.088;2023-06-22T00:33:16;102057.20;;;13.61;100.00
31331;BME280;34067;39.548;-76.088;2023-06-22T00:35:44;102052.69;;;12.98;100.00
31331;BME280;34067;39.548;-76.088;2023-06-22T00:38:12;102048.49;;;13.90;100.00
31331;BME280;34067;39.548;-76.088;2023-06-22T00:40:40;102050.32;;;12.66;100.00
31331;BME280;34067;39.548;-76.088;2023-06-22T00:43:08;102051.19;;;12.54;100.00
31331;BME280;34067;39.548;-76.088;2023-06-22T00:45:36;102050.79;;;12.87;100.00
31331;BME280;34067;39.548;-76.088;2023-06-22T00:48:05;102046.83;;;13.20;100.00
31331;BME280;34067;39.548;-76.088;2023-06-22T00:50:34;102043.12;;;14.12;100.00
31331;BME280;34067;39.548;-76.088;2023-06-22T00:53:04;102048.05;;;12.67;100.00
31331;BME280;34067;39.548;-76.088;2023-06-22T00:55:32;102037.57;;;13.13;100.00
31331;BME280;34067;39.548;-76.088;2023-06-22T00:58:01;102030.47;;;12.04;100.00
31331;BME280;34067;39.548;-76.088;2023-06-22T01:00:29;102036.68;;;12.92;100.00
31331;BME280;34067;39.548;-76.088;2023-06-22T01:02:56;102027.94;;;13.35;100.00
31331;BME280;34067;39.548;-76.088;2023-06-22T01:05:25;102027.81;;;12.18;100.00
31331;BME280;34067;39.548;-76.088;2023-06-22T01:08:03;102034.20;;;12.23;100.00
31331;BME280;34067;39.548;-76.088;2023-06-22T01:10:41;102043.97;;;13.06;100.00
31331;BME280;34067;39.548;-76.088;2023-06-22T01:13:18;102044.55;;;13.87;100.00
31331;BME280;34067;39.548;-76.088;2023-06-22T01:15:55;102050.04;;;12.75;100.00
31331;BME280;34067;39.548;-76.088;2023-06-22T01:18:28;102052.11;;;13.27;100.00
31331;BME280;34067;39.548;-76.088;2023-06-22T01:20:57;102045.72;;;13.74;100.00
31331;BME280;34067;39.548;-76.088;2023-06-22T01:23:33;102043.82;;;13.70;100.00
31331;BME280;34067;39.548;-76.088;2023-06-22T01:26:15;102045.80;;;13.21;100.00
31331;BME280;34067;39.548;-76.088;2023-06-22T01:28:47;102045.31;;;11.48;100.00
31331;BME280;34067;39.548;-76.088;2023-06-22T01:31:18;102043.70;;;12.90;100.00
31331;BME280;34067;39.548;-76.088;2023-06-22T01:33:51;102050.46;;;13.56;100.00
31331;BME280;34067;39.548;-76.088;2023-06-22T01:36:22;102048.58;;;13.15;100.00
31331;BME280;34067;39.548;-76.088;2023-06-22T01:38:51;102046.90;;;12.01;100.00
31331;BME280;34067;39.548;-76.088;2023-06-22T01:41:24;102047.24;;;13.23;100.00
31331;BME280;34067;39.548;-76.088;2023-06-22T01:43:53;102043.04;;;13.64;100.00
31331;BME280;34067;39.548;-76.088;2023-06-22T01:46:21;102040.24;;;11.77;100.00
31331;BME280;34067;39.548;-76.088;2023-06-22T01:48:51;102041.95;;;12.92;100.00
31331;BME280;34067;39.548;-76.088;2023-06-22T01:51:19;102043.70;;;12.23;100.00
31331;BME280;34067;39.548;-76.088;2023-06-22T01:53:47;102043.09;;;12.49;100.00
31331;BME280;34067;39.548;-76.088;2023-06-22T01:56:17;102037.27;;;12.94;100.00
31331;BME280;34067;39.548;-76.088;2023-06-22T01:58:50;102037.35;;;13.19;100.00
31331;BME280;34067;39.548;-76.088;2023-06-22T02:01:27;102036.62;;;11.71;100.00
31331;BME280;34067;39.548;-76.088;2023-06-22T02:04:04;102027.90;;;13.98;100.00
31331;BME280;34067;39.548;-76.088;2023-06-22T02:06:36;102038.97;;;13.12;100.00
31331;BME280;34067;39.548;-76.088;2023-06-22T02:09:08;102034.57;;;13.21;100.00
31331;BME280;34067;39.548;-76.088;2023-06-22T02:11:38;102031.19;;;13.79;100.00
31331;BME280;34067;39.548;-76.088;2023-06-22T02:14:08;102039.01;;;12.27;100.00
31331;BME280;34067;39.548;-76.088;2023-06-22T02:16:37;102033.94;;;12.26;100.00
31331;BME280;34067;39.548;-76.088;2023-06-22T02:19:05;102034.32;;;13.63;100.00
31331;BME280;34067;39.548;-76.088;2023-06-22T02:21:33;102034.83;;;12.61;100.00
31331;BME280;34067;39.548;-76.088;2023-06-22T02:24:01;102033.62;;;12.63;100.00
31331;BME280;34067;39.548;-76.088;2023-06-22T02:26:28;102035.26;;;12.79;100.00
31331;BME280;34067;39.548;-76.088;2023-06-22T02:28:56;102030.89;;;11.48;100.00
31331;BME280;34067;39.548;-76.088;2023-06-22T02:31:24;102031.66;;;12.05;100.00
31331;BME280;34067;39.548;-76.088;2023-06-22T02:33:52;102037.28;;;12.38;100.00
31331;BME280;34067;39.548;-76.088;2023-06-22T02:36:20;102029.91;;;12.44;100.00
31331;BME280;34067;39.548;-76.088;2023-06-22T02:38:48;102025.00;;;12.11;100.00
31331;BME280;34067;39.548;-76.088;2023-06-22T02:41:16;102019.70;;;11.91;100.00
31331;BME280;34067;39.548;-76.088;2023-06-22T02:43:44;102015.87;;;12.90;100.00
31331;BME280;34067;39.548;-76.088;2023-06-22T02:46:12;102008.39;;;13.14;100.00
31331;BME280;34067;39.548;-76.088;2023-06-22T02:48:41;102015.48;;;12.90;100.00
31331;BME280;34067;39.548;-76.088;2023-06-22T02:51:09;102020.62;;;12.62;100.00
31331;BME280;34067;39.548;-76.088;2023-06-22T02:53:37;102014.48;;;13.14;100.00
31331;BME280;34067;39.548;-76.088;2023-06-22T02:56:05;102012.54;;;12.83;100.00
31331;BME280;34067;39.548;-76.088;2023-06-22T02:58:33;102012.62;;;13.60;100.00
31331;BME280;34067;39.548;-76.088;2023-06-22T03:01:01;102010.95;;;13.53;100.00
31331;BME280;34067;39.548;-76.088;2023-06-22T03:03:29;102015.84;;;11.98;100.00
31331;BME280;34067;39.548;-76.088;2023-06-22T03:05:57;102015.90;;;11.37;100.00
31331;BME280;34067;39.548;-76.088;2023-06-22T03:08:24;102019.29;;;12.39;100.00
31331;BME280;34067;39.548;-76.088;2023-06-22T03:10:53;102017.03;;;12.89;100.00
31331;BME280;34067;39.548;-76.088;2023-06-22T03:13:21;102012.37;;;13.12;100.00
31331;BME280;34067;39.548;-76.088;2023-06-22T03:15:48;102000.99;;;13.71;100.00
31331;BME280;34067;39.548;-76.088;2023-06-22T03:18:16;102006.11;;;14.03;100.00
31331;BME280;34067;39.548;-76.088;2023-06-22T03:20:44;102006.02;;;11.64;100.00
31331;BME280;34067;39.548;-76.088;2023-06-22T03:23:12;102004.65;;;12.33;100.00
31331;BME280;34067;39.548;-76.088;2023-06-22T03:25:41;102000.27;;;12.20;100.00
31331;BME280;34067;39.548;-76.088;2023-06-22T03:28:09;101988.19;;;12.10;100.00
31331;BME280;34067;39.548;-76.088;2023-06-22T03:30:37;101989.96;;;12.38;100.00
31331;BME280;34067;39.548;-76.088;2023-06-22T03:33:05;101991.76;;;11.97;100.00
31331;BME280;34067;39.548;-76.088;2023-06-22T03:35:33;101984.14;;;11.79;100.00
31331;BME280;34067;39.548;-76.088;2023-06-22T03:38:01;101984.40;;;12.48;100.00
31331;BME280;34067;39.548;-76.088;2023-06-22T03:40:29;101980.54;;;11.79;100.00
31331;BME280;34067;39.548;-76.088;2023-06-22T03:42:57;101977.24;;;12.75;100.00
31331;BME280;34067;39.548;-76.088;2023-06-22T03:45:24;101979.67;;;12.35;100.00
31331;BME280;34067;39.548;-76.088;2023-06-22T03:47:52;101976.48;;;12.97;100.00
31331;BME280;34067;39.548;-76.088;2023-06-22T03:50:20;101974.93;;;13.27;100.00
31331;BME280;34067;39.548;-76.088;2023-06-22T03:52:49;101968.83;;;13.51;100.00
31331;BME280;34067;39.548;-76.088;2023-06-22T03:55:16;101960.48;;;13.99;100.00
31331;BME280;34067;39.548;-76.088;2023-06-22T03:57:44;101964.43;;;12.77;100.00
31331;BME280;34067;39.548;-76.088;2023-06-22T04:00:13;101966.16;;;11.63;100.00
31331;BME280;34067;39.548;-76.088;2023-06-22T04:02:41;101961.53;;;12.95;100.00
31331;BME280;34067;39.548;-76.088;2023-06-22T04:05:09;101962.14;;;11.20;100.00
31331;BME280;34067;39.548;-76.088;2023-06-22T04:07:38;101956.86;;;12.56;100.00
31331;BME280;34067;39.548;-76.088;2023-06-22T04:10:06;101958.49;;;12.26;100.00
31331;BME280;34067;39.548;-76.088;2023-06-22T04:12:34;101962.35;;;11.74;100.00
31331;BME280;34067;39.548;-76.088;2023-06-22T04:15:03;101952.14;;;12.71;100.00
31331;BME280;34067;39.548;-76.088;2023-06-22T04:17:30;101952.85;;;12.21;100.00
31331;BME280;34067;39.548;-76.088;2023-06-22T04:19:58;101949.06;;;12.85;100.00
31331;BME280;34067;39.548;-76.088;2023-06-22T04:22:26;101941.73;;;13.16;100.00
31331;BME280;34067;39.548;-76.088;2023-06-22T04:24:54;101946.91;;;12.25;100.00
31331;BME280;34067;39.548;-76.088;2023-06-22T04:27:22;101943.36;;;13.21;100.00
31331;BME280;34067;39.548;-76.088;2023-06-22T04:29:50;101944.97;;;12.82;100.00
31331;BME280;34067;39.548;-76.088;2023-06-22T04:32:18;101937.06;;;12.43;100.00
31331;BME280;34067;39.548;-76.088;2023-06-22T04:34:46;101932.69;;;12.24;100.00
31331;BME280;34067;39.548;-76.088;2023-06-22T04:37:14;101923.22;;;12.87;100.00
31331;BME280;34067;39.548;-76.088;2023-06-22T04:39:42;101920.22;;;14.17;100.00
31331;BME280;34067;39.548;-76.088;2023-06-22T04:42:09;101913.39;;;13.17;100.00
31331;BME280;34067;39.548;-76.088;2023-06-22T04:44:37;101910.55;;;13.78;100.00
31331;BME280;34067;39.548;-76.088;2023-06-22T04:47:05;101914.15;;;12.39;100.00
31331;BME280;34067;39.548;-76.088;2023-06-22T04:49:34;101910.72;;;12.32;100.00
31331;BME280;34067;39.548;-76.088;2023-06-22T04:52:03;101909.92;;;13.66;100.00
31331;BME280;34067;39.548;-76.088;2023-06-22T04:54:32;101913.30;;;12.30;100.00
31331;BME280;34067;39.548;-76.088;2023-06-22T04:57:01;101912.39;;;14.16;100.00
31331;BME280;34067;39.548;-76.088;2023-06-22T04:59:30;101909.11;;;13.48;100.00
31331;BME280;34067;39.548;-76.088;2023-06-22T05:03:09;101908.85;;;13.68;100.00
31331;BME280;34067;39.548;-76.088;2023-06-22T05:05:38;101907.29;;;14.32;100.00
31331;BME280;34067;39.548;-76.088;2023-06-22T05:08:05;101906.32;;;13.83;100.00
31331;BME280;34067;39.548;-76.088;2023-06-22T05:10:33;101898.76;;;13.48;100.00
31331;BME280;34067;39.548;-76.088;2023-06-22T05:13:01;101901.17;;;14.03;100.00
31331;BME280;34067;39.548;-76.088;2023-06-22T05:15:29;101898.00;;;14.04;100.00
31331;BME280;34067;39.548;-76.088;2023-06-22T05:17:57;101892.82;;;14.34;100.00
31331;BME280;34067;39.548;-76.088;2023-06-22T05:20:25;101898.62;;;12.88;100.00
31331;BME280;34067;39.548;-76.088;2023-06-22T05:22:53;101885.30;;;12.75;100.00
31331;BME280;34067;39.548;-76.088;2023-06-22T05:25:21;101882.63;;;13.41;100.00
31331;BME280;34067;39.548;-76.088;2023-06-22T05:27:49;101880.82;;;14.09;100.00
31331;BME280;34067;39.548;-76.088;2023-06-22T05:30:17;101878.00;;;14.86;100.00
31331;BME280;34067;39.548;-76.088;2023-06-22T05:32:45;101876.23;;;14.27;100.00
31331;BME280;34067;39.548;-76.088;2023-06-22T05:35:12;101878.91;;;13.90;100.00
31331;BME280;34067;39.548;-76.088;2023-06-22T05:37:40;101882.05;;;13.80;100.00
31331;BME280;34067;39.548;-76.088;2023-06-22T05:40:09;101877.17;;;14.61;100.00
31331;BME280;34067;39.548;-76.088;2023-06-22T05:42:37;101879.48;;;14.63;100.00
31331;BME280;34067;39.548;-76.088;2023-06-22T05:45:06;101874.46;;;14.47;100.00
31331;BME280;34067;39.548;-76.088;2023-06-22T05:47:34;101872.74;;;14.45;100.00
31331;BME280;34067;39.548;-76.088;2023-06-22T05:50:02;101868.74;;;15.00;100.00
31331;BME280;34067;39.548;-76.088;2023-06-22T05:52:29;101871.18;;;14.80;100.00
31331;BME280;34067;39.548;-76.088;2023-06-22T05:54:58;101869.66;;;14.36;100.00
31331;BME280;34067;39.548;-76.088;2023-06-22T05:57:25;101873.46;;;13.48;100.00
31331;BME280;34067;39.548;-76.088;2023-06-22T05:59:53;101874.37;;;14.18;100.00
31331;BME280;34067;39.548;-76.088;2023-06-22T06:02:21;101871.81;;;14.56;100.00
31331;BME280;34067;39.548;-76.088;2023-06-22T06:04:49;101870.60;;;14.61;100.00
31331;BME280;34067;39.548;-76.088;2023-06-22T06:07:17;101867.77;;;15.40;100.00
31331;BME280;34067;39.548;-76.088;2023-06-22T06:09:45;101865.45;;;15.37;100.00
31331;BME280;34067;39.548;-76.088;2023-06-22T06:12:13;101861.33;;;15.26;100.00
31331;BME280;34067;39.548;-76.088;2023-06-22T06:14:41;101861.91;;;16.09;100.00
31331;BME280;34067;39.548;-76.088;2023-06-22T06:17:09;101855.39;;;15.84;100.00
31331;BME280;34067;39.548;-76.088;2023-06-22T06:19:37;101853.51;;;14.14;100.00
31331;BME280;34067;39.548;-76.088;2023-06-22T06:22:05;101854.40;;;14.68;100.00
31331;BME280;34067;39.548;-76.088;2023-06-22T06:24:33;101846.23;;;15.53;100.00
31331;BME280;34067;39.548;-76.088;2023-06-22T06:27:01;101841.41;;;15.89;100.00
31331;BME280;34067;39.548;-76.088;2023-06-22T06:29:29;101837.56;;;15.19;100.00
31331;BME280;34067;39.548;-76.088;2023-06-22T06:31:57;101836.10;;;15.19;100.00
31331;BME280;34067;39.548;-76.088;2023-06-22T06:34:25;101830.52;;;14.79;100.00
31331;BME280;34067;39.548;-76.088;2023-06-22T06:36:53;101831.58;;;15.07;100.00
31331;BME280;34067;39.548;-76.088;2023-06-22T06:39:20;101829.77;;;14.87;100.00
31331;BME280;34067;39.548;-76.088;2023-06-22T06:41:48;101824.69;;;15.14;100.00
31331;BME280;34067;39.548;-76.088;2023-06-22T06:44:16;101822.63;;;14.42;100.00
31331;BME280;34067;39.548;-76.088;2023-06-22T06:46:44;101823.36;;;14.75;100.00
31331;BME280;34067;39.548;-76.088;2023-06-22T06:49:12;101824.75;;;13.66;100.00
31331;BME280;34067;39.548;-76.088;2023-06-22T06:51:40;101824.29;;;15.15;100.00
31331;BME280;34067;39.548;-76.088;2023-06-22T06:54:08;101825.18;;;14.96;100.00
31331;BME280;34067;39.548;-76.088;2023-06-22T06:56:37;101826.60;;;16.20;100.00
31331;BME280;34067;39.548;-76.088;2023-06-22T06:59:04;101823.49;;;15.03;100.00
31331;BME280;34067;39.548;-76.088;2023-06-22T07:01:32;101819.32;;;15.44;100.00
31331;BME280;34067;39.548;-76.088;2023-06-22T07:04:00;101812.66;;;15.74;100.00
31331;BME280;34067;39.548;-76.088;2023-06-22T07:06:28;101813.18;;;15.74;100.00
31331;BME280;34067;39.548;-76.088;2023-06-22T07:08:56;101815.12;;;15.14;100.00
31331;BME280;34067;39.548;-76.088;2023-06-22T07:11:24;101816.19;;;14.26;100.00
31331;BME280;34067;39.548;-76.088;2023-06-22T07:13:52;101817.81;;;14.51;100.00
31331;BME280;34067;39.548;-76.088;2023-06-22T07:16:20;101829.51;;;13.76;100.00
31331;BME280;34067;39.548;-76.088;2023-06-22T07:18:48;101818.77;;;14.96;100.00
31331;BME280;34067;39.548;-76.088;2023-06-22T07:21:16;101815.19;;;13.60;100.00
31331;BME280;34067;39.548;-76.088;2023-06-22T07:23:44;101814.90;;;13.90;100.00
31331;BME280;34067;39.548;-76.088;2023-06-22T07:26:12;101816.93;;;14.80;100.00
31331;BME280;34067;39.548;-76.088;2023-06-22T07:28:39;101819.74;;;14.52;100.00
31331;BME280;34067;39.548;-76.088;2023-06-22T07:31:07;101830.43;;;15.07;100.00
31331;BME280;34067;39.548;-76.088;2023-06-22T07:33:35;101828.94;;;13.53;100.00
31331;BME280;34067;39.548;-76.088;2023-06-22T07:36:03;101830.13;;;14.99;100.00
31331;BME280;34067;39.548;-76.088;2023-06-22T07:38:31;101829.84;;;14.99;100.00
31331;BME280;34067;39.548;-76.088;2023-06-22T07:40:59;101824.67;;;15.64;100.00
31331;BME280;34067;39.548;-76.088;2023-06-22T07:43:27;101833.76;;;14.22;100.00
31331;BME280;34067;39.548;-76.088;2023-06-22T07:45:55;101830.15;;;14.95;100.00
31331;BME280;34067;39.548;-76.088;2023-06-22T07:48:23;101828.27;;;14.59;100.00
31331;BME280;34067;39.548;-76.088;2023-06-22T07:50:51;101822.58;;;14.21;100.00
31331;BME280;34067;39.548;-76.088;2023-06-22T07:53:19;101826.44;;;15.54;100.00
31331;BME280;34067;39.548;-76.088;2023-06-22T07:55:47;101827.46;;;13.71;100.00
31331;BME280;34067;39.548;-76.088;2023-06-22T07:58:15;101821.99;;;15.21;100.00
31331;BME280;34067;39.548;-76.088;2023-06-22T08:00:43;101823.14;;;15.04;100.00
31331;BME280;34067;39.548;-76.088;2023-06-22T08:03:11;101821.20;;;15.58;100.00
31331;BME280;34067;39.548;-76.088;2023-06-22T08:05:39;101816.61;;;15.34;100.00
31331;BME280;34067;39.548;-76.088;2023-06-22T08:08:07;101819.09;;;15.45;100.00
31331;BME280;34067;39.548;-76.088;2023-06-22T08:10:35;101817.45;;;15.48;100.00
31331;BME280;34067;39.548;-76.088;2023-06-22T08:13:03;101822.89;;;15.13;100.00
31331;BME280;34067;39.548;-76.088;2023-06-22T08:15:31;101815.97;;;14.98;100.00
31331;BME280;34067;39.548;-76.088;2023-06-22T08:17:59;101817.20;;;13.45;100.00
31331;BME280;34067;39.548;-76.088;2023-06-22T08:20:27;101813.13;;;14.20;100.00
31331;BME280;34067;39.548;-76.088;2023-06-22T08:22:56;101809.39;;;14.98;100.00
31331;BME280;34067;39.548;-76.088;2023-06-22T08:25:24;101800.66;;;15.34;100.00
31331;BME280;34067;39.548;-76.088;2023-06-22T08:27:51;101800.74;;;13.68;100.00
31331;BME280;34067;39.548;-76.088;2023-06-22T08:30:19;101792.27;;;14.75;100.00
31331;BME280;34067;39.548;-76.088;2023-06-22T08:32:47;101795.21;;;14.33;100.00
31331;BME280;34067;39.548;-76.088;2023-06-22T08:35:15;101795.31;;;14.04;100.00
31331;BME280;34067;39.548;-76.088;2023-06-22T08:37:43;101797.42;;;15.06;100.00
31331;BME280;34067;39.548;-76.088;2023-06-22T08:40:12;101801.82;;;15.40;100.00
31331;BME280;34067;39.548;-76.088;2023-06-22T08:42:41;101805.00;;;14.70;100.00
31331;BME280;34067;39.548;-76.088;2023-06-22T08:45:10;101807.68;;;15.24;100.00
31331;BME280;34067;39.548;-76.088;2023-06-22T08:47:38;101811.54;;;15.79;100.00
31331;BME280;34067;39.548;-76.088;2023-06-22T08:50:07;101805.65;;;15.29;100.00
31331;BME280;34067;39.548;-76.088;2023-06-22T08:52:35;101805.51;;;15.70;100.00
31331;BME280;34067;39.548;-76.088;2023-06-22T08:55:04;101805.04;;;16.00;100.00
31331;BME280;34067;39.548;-76.088;2023-06-22T08:57:32;101808.26;;;15.87;100.00
31331;BME280;34067;39.548;-76.088;2023-06-22T09:00:00;101811.27;;;15.50;100.00
31331;BME280;34067;39.548;-76.088;2023-06-22T09:02:28;101812.07;;;15.61;100.00
31331;BME280;34067;39.548;-76.088;2023-06-22T09:04:57;101809.04;;;15.62;100.00
31331;BME280;34067;39.548;-76.088;2023-06-22T09:07:25;101807.69;;;14.92;100.00
31331;BME280;34067;39.548;-76.088;2023-06-22T09:09:53;101814.04;;;15.45;100.00
31331;BME280;34067;39.548;-76.088;2023-06-22T09:12:21;101819.54;;;15.13;100.00
31331;BME280;34067;39.548;-76.088;2023-06-22T09:14:49;101821.67;;;15.22;100.00
31331;BME280;34067;39.548;-76.088;2023-06-22T09:17:17;101829.98;;;15.50;100.00
31331;BME280;34067;39.548;-76.088;2023-06-22T09:19:45;101840.39;;;16.11;100.00
31331;BME280;34067;39.548;-76.088;2023-06-22T09:22:14;101838.54;;;16.40;100.00
31331;BME280;34067;39.548;-76.088;2023-06-22T09:24:42;101836.55;;;15.94;100.00
31331;BME280;34067;39.548;-76.088;2023-06-22T09:27:10;101843.86;;;15.58;100.00
31331;BME280;34067;39.548;-76.088;2023-06-22T09:29:38;101834.42;;;14.56;100.00
31331;BME280;34067;39.548;-76.088;2023-06-22T09:32:06;101835.73;;;14.72;100.00
31331;BME280;34067;39.548;-76.088;2023-06-22T09:34:35;101834.60;;;14.18;100.00
31331;BME280;34067;39.548;-76.088;2023-06-22T09:37:02;101833.58;;;15.41;100.00
31331;BME280;34067;39.548;-76.088;2023-06-22T09:39:30;101831.74;;;15.35;100.00
31331;BME280;34067;39.548;-76.088;2023-06-22T09:41:59;101835.99;;;15.11;100.00
31331;BME280;34067;39.548;-76.088;2023-06-22T09:44:27;101835.43;;;15.20;100.00
31331;BME280;34067;39.548;-76.088;2023-06-22T09:46:56;101832.86;;;15.60;100.00
31331;BME280;34067;39.548;-76.088;2023-06-22T09:49:24;101836.31;;;14.42;100.00
31331;BME280;34067;39.548;-76.088;2023-06-22T09:51:52;101844.17;;;15.18;100.00
31331;BME280;34067;39.548;-76.088;2023-06-22T09:54:20;101840.96;;;14.96;100.00
31331;BME280;34067;39.548;-76.088;2023-06-22T09:56:48;101845.46;;;13.82;100.00
31331;BME280;34067;39.548;-76.088;2023-06-22T09:59:16;101847.59;;;14.55;100.00
31331;BME280;34067;39.548;-76.088;2023-06-22T10:01:45;101851.58;;;14.77;100.00
31331;BME280;34067;39.548;-76.088;2023-06-22T10:04:12;101854.81;;;13.86;100.00
31331;BME280;34067;39.548;-76.088;2023-06-22T10:06:40;101860.62;;;13.82;100.00
31331;BME280;34067;39.548;-76.088;2023-06-22T10:09:08;101858.98;;;14.48;100.00
31331;BME280;34067;39.548;-76.088;2023-06-22T10:11:36;101860.19;;;13.64;100.00
31331;BME280;34067;39.548;-76.088;2023-06-22T10:14:04;101866.54;;;13.70;100.00
31331;BME280;34067;39.548;-76.088;2023-06-22T10:16:32;101868.36;;;14.58;100.00
31331;BME280;34067;39.548;-76.088;2023-06-22T10:19:00;101878.54;;;13.77;100.00
31331;BME280;34067;39.548;-76.088;2023-06-22T10:21:28;101868.87;;;13.63;100.00
31331;BME280;34067;39.548;-76.088;2023-06-22T10:23:56;101868.01;;;12.91;100.00
31331;BME280;34067;39.548;-76.088;2023-06-22T10:26:24;101871.58;;;13.64;100.00
31331;BME280;34067;39.548;-76.088;2023-06-22T10:28:52;101873.77;;;14.98;100.00
31331;BME280;34067;39.548;-76.088;2023-06-22T10:31:20;101877.22;;;14.96;100.00
31331;BME280;34067;39.548;-76.088;2023-06-22T10:33:48;101875.77;;;14.81;100.00
31331;BME280;34067;39.548;-76.088;2023-06-22T10:36:16;101879.44;;;15.77;100.00
31331;BME280;34067;39.548;-76.088;2023-06-22T10:38:44;101878.67;;;15.19;100.00
31331;BME280;34067;39.548;-76.088;2023-06-22T10:41:12;101879.04;;;14.81;100.00
31331;BME280;34067;39.548;-76.088;2023-06-22T10:43:40;101875.47;;;15.69;100.00
31331;BME280;34067;39.548;-76.088;2023-06-22T10:46:09;101880.31;;;15.25;100.00
31331;BME280;34067;39.548;-76.088;2023-06-22T10:48:37;101875.68;;;16.27;100.00
31331;BME280;34067;39.548;-76.088;2023-06-22T10:51:05;101876.48;;;14.77;100.00
31331;BME280;34067;39.548;-76.088;2023-06-22T10:53:33;101875.01;;;15.44;100.00
31331;BME280;34067;39.548;-76.088;2023-06-22T10:56:01;101877.64;;;15.69;100.00
31331;BME280;34067;39.548;-76.088;2023-06-22T10:58:29;101881.10;;;15.48;100.00
31331;BME280;34067;39.548;-76.088;2023-06-22T11:00:57;101885.32;;;15.13;100.00
31331;BME280;34067;39.548;-76.088;2023-06-22T11:03:25;101888.66;;;14.93;100.00
31331;BME280;34067;39.548;-76.088;2023-06-22T11:05:52;101892.25;;;14.32;100.00
31331;BME280;34067;39.548;-76.088;2023-06-22T11:08:20;101894.15;;;15.24;100.00
31331;BME280;34067;39.548;-76.088;2023-06-22T11:10:50;101895.46;;;14.73;100.00
31331;BME280;34067;39.548;-76.088;2023-06-22T11:13:18;101895.89;;;14.89;100.00
31331;BME280;34067;39.548;-76.088;2023-06-22T11:15:46;101896.54;;;14.55;100.00
31331;BME280;34067;39.548;-76.088;2023-06-22T11:18:14;101889.36;;;15.16;100.00
31331;BME280;34067;39.548;-76.088;2023-06-22T11:20:43;101893.43;;;14.43;100.00
31331;BME280;34067;39.548;-76.088;2023-06-22T11:23:10;101893.53;;;14.74;100.00
31331;BME280;34067;39.548;-76.088;2023-06-22T11:25:38;101898.37;;;14.79;100.00
31331;BME280;34067;39.548;-76.088;2023-06-22T11:28:06;101901.03;;;13.17;100.00
31331;BME280;34067;39.548;-76.088;2023-06-22T11:30:34;101902.55;;;13.05;100.00
31331;BME280;34067;39.548;-76.088;2023-06-22T11:33:02;101904.11;;;14.63;100.00
31331;BME280;34067;39.548;-76.088;2023-06-22T11:35:29;101902.45;;;15.08;100.00
31331;BME280;34067;39.548;-76.088;2023-06-22T11:37:57;101904.85;;;15.01;100.00
31331;BME280;34067;39.548;-76.088;2023-06-22T11:40:25;101908.35;;;13.95;100.00
31331;BME280;34067;39.548;-76.088;2023-06-22T11:42:53;101906.86;;;14.31;100.00
31331;BME280;34067;39.548;-76.088;2023-06-22T11:45:21;101911.98;;;14.45;100.00
31331;BME280;34067;39.548;-76.088;2023-06-22T11:47:49;101912.06;;;14.62;100.00
31331;BME280;34067;39.548;-76.088;2023-06-22T11:50:17;101912.10;;;15.50;100.00
31331;BME280;34067;39.548;-76.088;2023-06-22T11:52:45;101921.47;;;13.46;100.00
31331;BME280;34067;39.548;-76.088;2023-06-22T11:55:13;101921.34;;;14.89;100.00
31331;BME280;34067;39.548;-76.088;2023-06-22T11:57:54;101915.14;;;15.52;100.00
31331;BME280;34067;39.548;-76.088;2023-06-22T12:00:22;101912.79;;;14.92;100.00
31331;BME280;34067;39.548;-76.088;2023-06-22T12:02:50;101911.52;;;14.33;100.00
31331;BME280;34067;39.548;-76.088;2023-06-22T12:05:19;101904.71;;;15.30;100.00
31331;BME280;34067;39.548;-76.088;2023-06-22T12:07:47;101908.21;;;15.67;100.00
31331;BME280;34067;39.548;-76.088;2023-06-22T12:10:16;101903.22;;;14.78;100.00
31331;BME280;34067;39.548;-76.088;2023-06-22T12:12:43;101901.35;;;12.68;100.00
31331;BME280;34067;39.548;-76.088;2023-06-22T12:15:12;101905.61;;;13.74;100.00
31331;BME280;34067;39.548;-76.088;2023-06-22T12:17:40;101909.01;;;15.62;100.00
31331;BME280;34067;39.548;-76.088;2023-06-22T12:20:09;101910.46;;;15.49;100.00
31331;BME280;34067;39.548;-76.088;2023-06-22T12:22:37;101910.18;;;15.64;100.00
31331;BME280;34067;39.548;-76.088;2023-06-22T12:25:06;101912.11;;;15.95;100.00
31331;BME280;34067;39.548;-76.088;2023-06-22T12:27:34;101915.80;;;15.23;100.00